Dresden, Tennessee
Current Conditions -  °F | °C
As of 11:15 AM on Saturday 25 Oct 2014 (Local Time) from KUCY Reporting Station
Clear Clear  
Wind Chill: 72°   Ceiling: Unl
Heat Index: 72°   Visibility: 10mi
Dew Point: 61°   Wind: 6mph
Humidity: 69%   Direction: 320°NW
Pressure: 30.05"   Gusts: NA
Location:  36.29°N, 88.71°W
Report Text: KUCY 251615Z AUTO 32005KT 10SM CLR 22/16 A3005 RMK
Loading
Personal Weather Stations






























Interactive Weather Map
Tropical Storm Tracking
New forecast layout! Learn more

10-Day Weather Forecast

Advertisements
Track Severe Weather on mobile